sensor_id;sensor_type;location;lat;lon;timestamp;P1;durP1;ratioP1;P2;durP2;ratioP2
49852;SDS011;35751;48.072;11.688;2022-10-16T00:01:08;3.40;;;1.52;;
49852;SDS011;35751;48.072;11.688;2022-10-16T00:03:36;1.70;;;1.42;;
49852;SDS011;35751;48.072;11.688;2022-10-16T00:06:01;3.55;;;1.73;;
49852;SDS011;35751;48.072;11.688;2022-10-16T00:08:27;1.83;;;1.33;;
49852;SDS011;35751;48.072;11.688;2022-10-16T00:10:57;1.70;;;1.20;;
49852;SDS011;35751;48.072;11.688;2022-10-16T00:13:24;2.95;;;1.70;;
49852;SDS011;35751;48.072;11.688;2022-10-16T00:15:49;1.88;;;1.65;;
49852;SDS011;35751;48.072;11.688;2022-10-16T00:18:14;2.58;;;1.63;;
49852;SDS011;35751;48.072;11.688;2022-10-16T00:20:40;1.83;;;1.42;;
49852;SDS011;35751;48.072;11.688;2022-10-16T00:23:05;3.22;;;1.50;;
49852;SDS011;35751;48.072;11.688;2022-10-16T00:25:31;3.97;;;1.38;;
49852;SDS011;35751;48.072;11.688;2022-10-16T00:27:58;2.08;;;1.20;;
49852;SDS011;35751;48.072;11.688;2022-10-16T00:30:24;4.68;;;1.65;;
49852;SDS011;35751;48.072;11.688;2022-10-16T00:32:51;1.98;;;1.50;;
49852;SDS011;35751;48.072;11.688;2022-10-16T00:35:17;3.83;;;1.80;;
49852;SDS011;35751;48.072;11.688;2022-10-16T00:37:42;1.95;;;1.23;;
49852;SDS011;35751;48.072;11.688;2022-10-16T00:40:08;2.45;;;1.70;;
49852;SDS011;35751;48.072;11.688;2022-10-16T00:42:34;2.13;;;1.63;;
49852;SDS011;35751;48.072;11.688;2022-10-16T00:44:59;3.55;;;1.75;;
49852;SDS011;35751;48.072;11.688;2022-10-16T00:47:35;3.22;;;2.00;;
49852;SDS011;35751;48.072;11.688;2022-10-16T00:52:52;1.70;;;1.33;;
49852;SDS011;35751;48.072;11.688;2022-10-16T00:55:18;2.78;;;1.38;;
49852;SDS011;35751;48.072;11.688;2022-10-16T00:57:44;1.45;;;1.33;;
49852;SDS011;35751;48.072;11.688;2022-10-16T01:00:11;3.03;;;1.50;;
49852;SDS011;35751;48.072;11.688;2022-10-16T01:02:38;2.25;;;1.65;;
49852;SDS011;35751;48.072;11.688;2022-10-16T01:05:03;2.00;;;1.25;;
49852;SDS011;35751;48.072;11.688;2022-10-16T01:13:24;1.83;;;1.42;;
49852;SDS011;35751;48.072;11.688;2022-10-16T01:16:00;1.48;;;1.27;;
49852;SDS011;35751;48.072;11.688;2022-10-16T01:21:27;2.58;;;1.70;;
49852;SDS011;35751;48.072;11.688;2022-10-16T01:24:01;5.00;;;1.88;;
49852;SDS011;35751;48.072;11.688;2022-10-16T01:29:09;1.58;;;1.42;;
49852;SDS011;35751;48.072;11.688;2022-10-16T01:31:37;7.15;;;1.70;;
49852;SDS011;35751;48.072;11.688;2022-10-16T01:37:00;1.52;;;1.10;;
49852;SDS011;35751;48.072;11.688;2022-10-16T01:39:29;2.53;;;2.17;;
49852;SDS011;35751;48.072;11.688;2022-10-16T01:42:13;1.75;;;1.40;;
49852;SDS011;35751;48.072;11.688;2022-10-16T01:44:40;3.53;;;1.50;;
49852;SDS011;35751;48.072;11.688;2022-10-16T01:47:07;2.85;;;1.67;;
49852;SDS011;35751;48.072;11.688;2022-10-16T01:49:34;2.90;;;1.92;;
49852;SDS011;35751;48.072;11.688;2022-10-16T01:52:02;2.15;;;1.45;;
49852;SDS011;35751;48.072;11.688;2022-10-16T01:54:31;1.05;;;1.02;;
49852;SDS011;35751;48.072;11.688;2022-10-16T01:56:58;1.73;;;1.20;;
49852;SDS011;35751;48.072;11.688;2022-10-16T01:59:25;1.83;;;1.20;;
49852;SDS011;35751;48.072;11.688;2022-10-16T02:01:52;2.80;;;1.70;;
49852;SDS011;35751;48.072;11.688;2022-10-16T02:06:48;1.98;;;1.40;;
49852;SDS011;35751;48.072;11.688;2022-10-16T02:09:14;1.52;;;1.27;;
49852;SDS011;35751;48.072;11.688;2022-10-16T02:11:41;3.28;;;1.48;;
49852;SDS011;35751;48.072;11.688;2022-10-16T02:14:07;1.52;;;1.30;;
49852;SDS011;35751;48.072;11.688;2022-10-16T02:16:39;2.80;;;1.80;;
49852;SDS011;35751;48.072;11.688;2022-10-16T02:19:08;2.03;;;1.63;;
49852;SDS011;35751;48.072;11.688;2022-10-16T02:24:15;2.67;;;1.92;;
49852;SDS011;35751;48.072;11.688;2022-10-16T02:26:52;2.05;;;1.52;;
49852;SDS011;35751;48.072;11.688;2022-10-16T02:29:25;2.58;;;1.55;;
49852;SDS011;35751;48.072;11.688;2022-10-16T02:31:53;2.40;;;1.58;;
49852;SDS011;35751;48.072;11.688;2022-10-16T02:34:21;3.03;;;1.80;;
49852;SDS011;35751;48.072;11.688;2022-10-16T02:36:48;3.10;;;1.27;;
49852;SDS011;35751;48.072;11.688;2022-10-16T02:39:15;2.15;;;1.50;;
49852;SDS011;35751;48.072;11.688;2022-10-16T02:41:42;3.22;;;1.77;;
49852;SDS011;35751;48.072;11.688;2022-10-16T02:44:07;1.73;;;1.35;;
49852;SDS011;35751;48.072;11.688;2022-10-16T02:46:32;3.55;;;1.58;;
49852;SDS011;35751;48.072;11.688;2022-10-16T02:48:58;2.63;;;1.42;;
49852;SDS011;35751;48.072;11.688;2022-10-16T02:51:23;2.83;;;1.67;;
49852;SDS011;35751;48.072;11.688;2022-10-16T02:53:48;2.42;;;1.40;;
49852;SDS011;35751;48.072;11.688;2022-10-16T02:56:14;3.05;;;1.10;;
49852;SDS011;35751;48.072;11.688;2022-10-16T02:58:39;1.90;;;1.40;;
49852;SDS011;35751;48.072;11.688;2022-10-16T03:01:04;1.90;;;1.40;;
49852;SDS011;35751;48.072;11.688;2022-10-16T03:03:30;1.73;;;1.23;;
49852;SDS011;35751;48.072;11.688;2022-10-16T03:05:55;2.47;;;1.75;;
49852;SDS011;35751;48.072;11.688;2022-10-16T03:08:20;2.58;;;1.67;;
49852;SDS011;35751;48.072;11.688;2022-10-16T03:10:48;1.77;;;1.60;;
49852;SDS011;35751;48.072;11.688;2022-10-16T03:13:14;2.67;;;1.27;;
49852;SDS011;35751;48.072;11.688;2022-10-16T03:15:39;2.05;;;1.33;;
49852;SDS011;35751;48.072;11.688;2022-10-16T03:18:05;2.10;;;1.30;;
49852;SDS011;35751;48.072;11.688;2022-10-16T03:20:30;1.63;;;1.40;;
49852;SDS011;35751;48.072;11.688;2022-10-16T03:22:55;3.17;;;1.70;;
49852;SDS011;35751;48.072;11.688;2022-10-16T03:25:21;1.77;;;1.50;;
49852;SDS011;35751;48.072;11.688;2022-10-16T03:27:46;2.15;;;1.20;;
49852;SDS011;35751;48.072;11.688;2022-10-16T03:30:11;1.17;;;1.08;;
49852;SDS011;35751;48.072;11.688;2022-10-16T03:32:37;2.17;;;1.60;;
49852;SDS011;35751;48.072;11.688;2022-10-16T03:35:02;3.00;;;1.88;;
49852;SDS011;35751;48.072;11.688;2022-10-16T03:37:28;1.88;;;1.40;;
49852;SDS011;35751;48.072;11.688;2022-10-16T03:39:53;2.85;;;1.30;;
49852;SDS011;35751;48.072;11.688;2022-10-16T03:42:18;2.55;;;1.38;;
49852;SDS011;35751;48.072;11.688;2022-10-16T03:44:44;2.22;;;1.50;;
49852;SDS011;35751;48.072;11.688;2022-10-16T03:47:09;2.45;;;1.27;;
49852;SDS011;35751;48.072;11.688;2022-10-16T03:49:34;3.15;;;1.50;;
49852;SDS011;35751;48.072;11.688;2022-10-16T03:52:00;2.72;;;1.77;;
49852;SDS011;35751;48.072;11.688;2022-10-16T03:54:25;4.30;;;1.52;;
49852;SDS011;35751;48.072;11.688;2022-10-16T03:56:51;2.20;;;1.63;;
49852;SDS011;35751;48.072;11.688;2022-10-16T03:59:16;1.55;;;1.45;;
49852;SDS011;35751;48.072;11.688;2022-10-16T04:01:41;2.42;;;2.10;;
49852;SDS011;35751;48.072;11.688;2022-10-16T04:04:07;2.63;;;1.80;;
49852;SDS011;35751;48.072;11.688;2022-10-16T04:06:32;3.38;;;1.58;;
49852;SDS011;35751;48.072;11.688;2022-10-16T04:08:58;2.17;;;1.23;;
49852;SDS011;35751;48.072;11.688;2022-10-16T04:11:23;3.13;;;1.77;;
49852;SDS011;35751;48.072;11.688;2022-10-16T04:13:49;3.97;;;1.98;;
49852;SDS011;35751;48.072;11.688;2022-10-16T04:16:14;4.38;;;2.75;;
49852;SDS011;35751;48.072;11.688;2022-10-16T04:18:39;3.47;;;1.75;;
49852;SDS011;35751;48.072;11.688;2022-10-16T04:21:05;3.05;;;1.50;;
49852;SDS011;35751;48.072;11.688;2022-10-16T04:23:31;2.00;;;1.60;;
49852;SDS011;35751;48.072;11.688;2022-10-16T04:25:56;2.85;;;1.77;;
49852;SDS011;35751;48.072;11.688;2022-10-16T04:28:22;2.92;;;2.45;;
49852;SDS011;35751;48.072;11.688;2022-10-16T04:30:47;2.90;;;1.67;;
49852;SDS011;35751;48.072;11.688;2022-10-16T04:33:13;2.55;;;1.60;;
49852;SDS011;35751;48.072;11.688;2022-10-16T04:35:38;4.95;;;1.88;;
49852;SDS011;35751;48.072;11.688;2022-10-16T04:38:03;2.88;;;1.70;;
49852;SDS011;35751;48.072;11.688;2022-10-16T04:40:29;2.40;;;1.85;;
49852;SDS011;35751;48.072;11.688;2022-10-16T04:42:57;2.58;;;1.48;;
49852;SDS011;35751;48.072;11.688;2022-10-16T04:45:23;2.85;;;1.98;;
49852;SDS011;35751;48.072;11.688;2022-10-16T04:47:49;2.35;;;1.70;;
49852;SDS011;35751;48.072;11.688;2022-10-16T04:50:14;4.38;;;2.22;;
49852;SDS011;35751;48.072;11.688;2022-10-16T04:52:39;3.67;;;1.70;;
49852;SDS011;35751;48.072;11.688;2022-10-16T04:55:05;2.95;;;1.75;;
49852;SDS011;35751;48.072;11.688;2022-10-16T04:57:30;3.65;;;1.98;;
49852;SDS011;35751;48.072;11.688;2022-10-16T04:59:56;2.28;;;1.60;;
49852;SDS011;35751;48.072;11.688;2022-10-16T05:02:21;3.13;;;1.60;;
49852;SDS011;35751;48.072;11.688;2022-10-16T05:04:47;3.28;;;1.55;;
49852;SDS011;35751;48.072;11.688;2022-10-16T05:07:12;2.15;;;1.67;;
49852;SDS011;35751;48.072;11.688;2022-10-16T05:09:37;5.43;;;1.73;;
49852;SDS011;35751;48.072;11.688;2022-10-16T05:12:03;2.40;;;1.75;;
49852;SDS011;35751;48.072;11.688;2022-10-16T05:14:28;2.10;;;1.73;;
49852;SDS011;35751;48.072;11.688;2022-10-16T05:16:54;2.25;;;1.73;;
49852;SDS011;35751;48.072;11.688;2022-10-16T05:19:19;2.33;;;1.67;;
49852;SDS011;35751;48.072;11.688;2022-10-16T05:21:45;2.97;;;1.63;;
49852;SDS011;35751;48.072;11.688;2022-10-16T05:24:10;3.65;;;2.20;;
49852;SDS011;35751;48.072;11.688;2022-10-16T05:26:35;2.72;;;1.60;;
49852;SDS011;35751;48.072;11.688;2022-10-16T05:29:01;2.08;;;1.58;;
49852;SDS011;35751;48.072;11.688;2022-10-16T05:31:26;3.88;;;2.05;;
49852;SDS011;35751;48.072;11.688;2022-10-16T05:33:52;2.67;;;1.92;;
49852;SDS011;35751;48.072;11.688;2022-10-16T05:36:17;1.77;;;1.45;;
49852;SDS011;35751;48.072;11.688;2022-10-16T05:38:43;3.35;;;1.70;;
49852;SDS011;35751;48.072;11.688;2022-10-16T05:41:09;3.65;;;1.95;;
49852;SDS011;35751;48.072;11.688;2022-10-16T05:43:35;2.13;;;1.80;;
49852;SDS011;35751;48.072;11.688;2022-10-16T05:46:02;2.75;;;1.75;;
49852;SDS011;35751;48.072;11.688;2022-10-16T05:48:29;2.17;;;1.65;;
49852;SDS011;35751;48.072;11.688;2022-10-16T05:50:58;3.05;;;1.73;;
49852;SDS011;35751;48.072;11.688;2022-10-16T05:53:24;3.28;;;1.70;;
49852;SDS011;35751;48.072;11.688;2022-10-16T05:55:56;2.92;;;2.22;;
49852;SDS011;35751;48.072;11.688;2022-10-16T05:58:22;2.05;;;1.60;;
49852;SDS011;35751;48.072;11.688;2022-10-16T06:00:55;3.88;;;1.80;;
49852;SDS011;35751;48.072;11.688;2022-10-16T06:03:21;5.68;;;2.95;;
49852;SDS011;35751;48.072;11.688;2022-10-16T06:05:47;2.05;;;1.60;;
49852;SDS011;35751;48.072;11.688;2022-10-16T06:08:16;6.45;;;2.35;;
49852;SDS011;35751;48.072;11.688;2022-10-16T06:10:43;3.67;;;2.50;;
49852;SDS011;35751;48.072;11.688;2022-10-16T06:13:09;2.40;;;1.90;;
49852;SDS011;35751;48.072;11.688;2022-10-16T06:15:34;2.60;;;2.08;;
49852;SDS011;35751;48.072;11.688;2022-10-16T06:18:00;3.10;;;2.13;;
49852;SDS011;35751;48.072;11.688;2022-10-16T06:20:25;2.55;;;2.00;;
49852;SDS011;35751;48.072;11.688;2022-10-16T06:22:51;20.13;;;2.88;;
49852;SDS011;35751;48.072;11.688;2022-10-16T06:25:16;1.83;;;1.45;;
49852;SDS011;35751;48.072;11.688;2022-10-16T06:27:42;2.83;;;1.98;;
49852;SDS011;35751;48.072;11.688;2022-10-16T06:30:07;3.22;;;2.55;;
49852;SDS011;35751;48.072;11.688;2022-10-16T06:32:33;2.72;;;2.00;;
49852;SDS011;35751;48.072;11.688;2022-10-16T06:34:59;2.92;;;2.15;;
49852;SDS011;35751;48.072;11.688;2022-10-16T06:37:24;2.67;;;2.05;;
49852;SDS011;35751;48.072;11.688;2022-10-16T06:39:53;4.13;;;2.15;;
49852;SDS011;35751;48.072;11.688;2022-10-16T06:42:18;6.10;;;3.30;;
49852;SDS011;35751;48.072;11.688;2022-10-16T06:44:44;2.58;;;2.00;;
49852;SDS011;35751;48.072;11.688;2022-10-16T06:47:13;2.63;;;1.98;;
49852;SDS011;35751;48.072;11.688;2022-10-16T06:49:38;3.63;;;1.95;;
49852;SDS011;35751;48.072;11.688;2022-10-16T06:52:04;4.40;;;2.10;;
49852;SDS011;35751;48.072;11.688;2022-10-16T06:54:30;2.30;;;1.67;;
49852;SDS011;35751;48.072;11.688;2022-10-16T06:56:56;5.30;;;2.45;;
49852;SDS011;35751;48.072;11.688;2022-10-16T06:59:21;2.45;;;1.70;;
49852;SDS011;35751;48.072;11.688;2022-10-16T07:01:47;3.22;;;1.77;;
49852;SDS011;35751;48.072;11.688;2022-10-16T07:04:12;2.63;;;2.08;;
49852;SDS011;35751;48.072;11.688;2022-10-16T07:06:38;2.95;;;2.03;;
49852;SDS011;35751;48.072;11.688;2022-10-16T07:09:05;2.88;;;2.00;;
49852;SDS011;35751;48.072;11.688;2022-10-16T07:11:32;4.78;;;2.03;;
49852;SDS011;35751;48.072;11.688;2022-10-16T07:13:58;2.00;;;1.60;;
49852;SDS011;35751;48.072;11.688;2022-10-16T07:16:25;2.30;;;1.58;;
49852;SDS011;35751;48.072;11.688;2022-10-16T07:18:52;1.77;;;1.50;;
49852;SDS011;35751;48.072;11.688;2022-10-16T07:21:27;2.75;;;1.95;;
49852;SDS011;35751;48.072;11.688;2022-10-16T07:23:54;2.50;;;1.65;;
49852;SDS011;35751;48.072;11.688;2022-10-16T07:26:24;2.50;;;1.75;;
49852;SDS011;35751;48.072;11.688;2022-10-16T07:28:51;3.00;;;2.08;;
49852;SDS011;35751;48.072;11.688;2022-10-16T07:31:17;3.25;;;1.73;;
49852;SDS011;35751;48.072;11.688;2022-10-16T07:33:44;2.42;;;1.38;;
49852;SDS011;35751;48.072;11.688;2022-10-16T07:36:12;3.90;;;1.70;;
49852;SDS011;35751;48.072;11.688;2022-10-16T07:38:38;1.67;;;1.40;;
49852;SDS011;35751;48.072;11.688;2022-10-16T07:41:05;2.63;;;1.50;;
49852;SDS011;35751;48.072;11.688;2022-10-16T07:43:32;3.65;;;1.60;;
49852;SDS011;35751;48.072;11.688;2022-10-16T07:45:58;2.42;;;1.77;;
49852;SDS011;35751;48.072;11.688;2022-10-16T07:48:26;2.30;;;1.42;;
49852;SDS011;35751;48.072;11.688;2022-10-16T07:50:52;1.23;;;1.05;;
49852;SDS011;35751;48.072;11.688;2022-10-16T07:53:18;2.40;;;1.30;;
49852;SDS011;35751;48.072;11.688;2022-10-16T07:55:43;1.75;;;1.10;;
49852;SDS011;35751;48.072;11.688;2022-10-16T07:58:08;2.20;;;1.67;;
49852;SDS011;35751;48.072;11.688;2022-10-16T08:00:35;2.20;;;1.42;;
49852;SDS011;35751;48.072;11.688;2022-10-16T08:03:01;1.60;;;1.50;;
49852;SDS011;35751;48.072;11.688;2022-10-16T08:05:27;3.40;;;2.13;;
49852;SDS011;35751;48.072;11.688;2022-10-16T08:07:54;2.22;;;1.35;;
49852;SDS011;35751;48.072;11.688;2022-10-16T08:10:20;2.00;;;1.30;;
49852;SDS011;35751;48.072;11.688;2022-10-16T08:12:48;2.30;;;1.48;;
49852;SDS011;35751;48.072;11.688;2022-10-16T08:15:13;2.95;;;1.67;;
49852;SDS011;35751;48.072;11.688;2022-10-16T08:17:39;1.73;;;1.17;;
49852;SDS011;35751;48.072;11.688;2022-10-16T08:20:04;3.00;;;1.67;;
49852;SDS011;35751;48.072;11.688;2022-10-16T08:22:30;3.55;;;1.95;;
49852;SDS011;35751;48.072;11.688;2022-10-16T08:24:56;3.33;;;1.60;;
49852;SDS011;35751;48.072;11.688;2022-10-16T08:27:21;3.63;;;1.80;;
49852;SDS011;35751;48.072;11.688;2022-10-16T08:29:48;2.88;;;1.50;;
49852;SDS011;35751;48.072;11.688;2022-10-16T08:32:13;4.13;;;1.45;;
49852;SDS011;35751;48.072;11.688;2022-10-16T08:34:39;2.20;;;1.50;;
49852;SDS011;35751;48.072;11.688;2022-10-16T08:37:05;2.60;;;1.60;;
49852;SDS011;35751;48.072;11.688;2022-10-16T08:39:32;2.70;;;1.90;;
49852;SDS011;35751;48.072;11.688;2022-10-16T08:42:10;1.60;;;1.50;;
49852;SDS011;35751;48.072;11.688;2022-10-16T08:45:05;2.60;;;1.33;;
49852;SDS011;35751;48.072;11.688;2022-10-16T08:47:43;1.83;;;1.40;;
49852;SDS011;35751;48.072;11.688;2022-10-16T08:50:24;1.98;;;1.67;;
49852;SDS011;35751;48.072;11.688;2022-10-16T08:52:53;2.13;;;1.60;;
49852;SDS011;35751;48.072;11.688;2022-10-16T08:55:28;2.28;;;1.27;;
49852;SDS011;35751;48.072;11.688;2022-10-16T08:57:57;1.85;;;1.40;;
49852;SDS011;35751;48.072;11.688;2022-10-16T09:00:23;1.63;;;1.52;;
49852;SDS011;35751;48.072;11.688;2022-10-16T09:02:52;2.47;;;1.42;;
49852;SDS011;35751;48.072;11.688;2022-10-16T09:10:57;2.60;;;1.40;;
49852;SDS011;35751;48.072;11.688;2022-10-16T09:13:33;4.65;;;1.52;;
49852;SDS011;35751;48.072;11.688;2022-10-16T09:21:30;2.17;;;1.58;;
49852;SDS011;35751;48.072;11.688;2022-10-16T09:23:59;2.05;;;1.48;;
49852;SDS011;35751;48.072;11.688;2022-10-16T09:26:25;2.78;;;1.63;;
49852;SDS011;35751;48.072;11.688;2022-10-16T09:28:52;2.58;;;1.05;;
49852;SDS011;35751;48.072;11.688;2022-10-16T09:31:18;1.70;;;1.60;;
49852;SDS011;35751;48.072;11.688;2022-10-16T09:33:48;1.60;;;1.08;;
49852;SDS011;35751;48.072;11.688;2022-10-16T09:36:23;1.50;;;1.35;;
49852;SDS011;35751;48.072;11.688;2022-10-16T09:39:00;2.58;;;1.40;;
49852;SDS011;35751;48.072;11.688;2022-10-16T09:41:30;1.27;;;1.17;;
49852;SDS011;35751;48.072;11.688;2022-10-16T09:43:59;1.58;;;1.25;;
49852;SDS011;35751;48.072;11.688;2022-10-16T09:48:59;2.05;;;1.45;;
49852;SDS011;35751;48.072;11.688;2022-10-16T09:51:27;1.60;;;1.50;;
49852;SDS011;35751;48.072;11.688;2022-10-16T09:53:55;1.40;;;1.20;;
49852;SDS011;35751;48.072;11.688;2022-10-16T09:58:59;2.17;;;1.13;;
49852;SDS011;35751;48.072;11.688;2022-10-16T10:01:29;1.63;;;1.52;;
49852;SDS011;35751;48.072;11.688;2022-10-16T10:03:57;1.95;;;1.40;;
49852;SDS011;35751;48.072;11.688;2022-10-16T10:06:31;1.50;;;1.30;;
49852;SDS011;35751;48.072;11.688;2022-10-16T10:14:35;3.28;;;1.33;;
49852;SDS011;35751;48.072;11.688;2022-10-16T10:22:57;1.85;;;1.50;;
49852;SDS011;35751;48.072;11.688;2022-10-16T10:33:31;2.67;;;1.20;;
49852;SDS011;35751;48.072;11.688;2022-10-16T10:41:14;2.88;;;1.48;;
49852;SDS011;35751;48.072;11.688;2022-10-16T10:46:56;2.05;;;1.30;;
49852;SDS011;35751;48.072;11.688;2022-10-16T10:49:31;1.05;;;0.90;;
49852;SDS011;35751;48.072;11.688;2022-10-16T11:05:43;1.95;;;0.93;;
49852;SDS011;35751;48.072;11.688;2022-10-16T11:08:19;1.00;;;0.90;;
49852;SDS011;35751;48.072;11.688;2022-10-16T11:13:45;1.20;;;0.90;;
49852;SDS011;35751;48.072;11.688;2022-10-16T11:16:23;1.83;;;1.05;;
49852;SDS011;35751;48.072;11.688;2022-10-16T11:18:56;1.35;;;0.88;;
49852;SDS011;35751;48.072;11.688;2022-10-16T11:21:47;1.23;;;0.90;;
49852;SDS011;35751;48.072;11.688;2022-10-16T11:24:25;1.20;;;1.10;;
49852;SDS011;35751;48.072;11.688;2022-10-16T11:27:00;0.95;;;0.80;;
49852;SDS011;35751;48.072;11.688;2022-10-16T11:29:31;0.80;;;0.80;;
49852;SDS011;35751;48.072;11.688;2022-10-16T11:31:58;0.80;;;0.80;;
49852;SDS011;35751;48.072;11.688;2022-10-16T11:34:47;2.28;;;0.70;;
49852;SDS011;35751;48.072;11.688;2022-10-16T11:37:19;1.15;;;1.05;;
49852;SDS011;35751;48.072;11.688;2022-10-16T11:39:47;1.20;;;0.80;;
49852;SDS011;35751;48.072;11.688;2022-10-16T11:42:16;1.38;;;0.70;;
49852;SDS011;35751;48.072;11.688;2022-10-16T12:01:14;0.73;;;0.68;;
49852;SDS011;35751;48.072;11.688;2022-10-16T12:03:48;1.05;;;0.80;;
49852;SDS011;35751;48.072;11.688;2022-10-16T12:11:59;1.30;;;0.93;;
49852;SDS011;35751;48.072;11.688;2022-10-16T12:16:57;0.73;;;0.73;;
49852;SDS011;35751;48.072;11.688;2022-10-16T12:19:30;0.80;;;0.80;;
49852;SDS011;35751;48.072;11.688;2022-10-16T12:21:57;0.80;;;0.80;;
49852;SDS011;35751;48.072;11.688;2022-10-16T12:24:29;1.27;;;1.00;;
49852;SDS011;35751;48.072;11.688;2022-10-16T12:26:58;1.10;;;0.80;;
49852;SDS011;35751;48.072;11.688;2022-10-16T12:32:03;1.42;;;0.77;;
49852;SDS011;35751;48.072;11.688;2022-10-16T12:37:28;0.68;;;0.57;;
49852;SDS011;35751;48.072;11.688;2022-10-16T12:39:56;0.93;;;0.82;;
49852;SDS011;35751;48.072;11.688;2022-10-16T12:42:30;0.60;;;0.60;;
49852;SDS011;35751;48.072;11.688;2022-10-16T12:44:58;1.52;;;1.10;;
49852;SDS011;35751;48.072;11.688;2022-10-16T12:49:56;0.85;;;0.85;;
49852;SDS011;35751;48.072;11.688;2022-10-16T12:54:51;1.77;;;1.00;;
49852;SDS011;35751;48.072;11.688;2022-10-16T12:59:55;0.90;;;0.90;;
49852;SDS011;35751;48.072;11.688;2022-10-16T13:02:48;0.63;;;0.63;;
49852;SDS011;35751;48.072;11.688;2022-10-16T13:13:50;1.30;;;1.08;;
49852;SDS011;35751;48.072;11.688;2022-10-16T13:21:55;1.02;;;1.02;;
49852;SDS011;35751;48.072;11.688;2022-10-16T13:30:21;1.02;;;0.80;;
49852;SDS011;35751;48.072;11.688;2022-10-16T13:32:59;0.93;;;0.70;;
49852;SDS011;35751;48.072;11.688;2022-10-16T13:35:27;1.05;;;0.95;;
49852;SDS011;35751;48.072;11.688;2022-10-16T13:45:59;0.70;;;0.70;;
49852;SDS011;35751;48.072;11.688;2022-10-16T13:48:29;2.35;;;0.93;;
49852;SDS011;35751;48.072;11.688;2022-10-16T13:53:41;0.68;;;0.65;;
49852;SDS011;35751;48.072;11.688;2022-10-16T13:56:12;1.08;;;0.98;;
49852;SDS011;35751;48.072;11.688;2022-10-16T13:58:39;0.77;;;0.73;;
49852;SDS011;35751;48.072;11.688;2022-10-16T14:01:51;1.40;;;0.80;;
49852;SDS011;35751;48.072;11.688;2022-10-16T14:04:00;0.90;;;0.90;;
49852;SDS011;35751;48.072;11.688;2022-10-16T14:06:27;1.23;;;1.02;;
49852;SDS011;35751;48.072;11.688;2022-10-16T14:09:05;0.98;;;0.98;;
49852;SDS011;35751;48.072;11.688;2022-10-16T14:11:48;0.80;;;0.80;;
49852;SDS011;35751;48.072;11.688;2022-10-16T14:14:16;5.20;;;0.88;;
49852;SDS011;35751;48.072;11.688;2022-10-16T14:16:42;1.98;;;1.23;;
49852;SDS011;35751;48.072;11.688;2022-10-16T14:19:18;1.05;;;0.90;;
49852;SDS011;35751;48.072;11.688;2022-10-16T14:21:45;3.05;;;0.73;;
49852;SDS011;35751;48.072;11.688;2022-10-16T14:24:11;1.25;;;1.00;;
49852;SDS011;35751;48.072;11.688;2022-10-16T14:26:41;0.95;;;0.82;;
49852;SDS011;35751;48.072;11.688;2022-10-16T14:31:36;1.65;;;0.70;;
49852;SDS011;35751;48.072;11.688;2022-10-16T14:34:02;2.08;;;0.82;;
49852;SDS011;35751;48.072;11.688;2022-10-16T14:36:28;0.70;;;0.70;;
49852;SDS011;35751;48.072;11.688;2022-10-16T14:38:59;1.17;;;0.75;;
49852;SDS011;35751;48.072;11.688;2022-10-16T14:41:30;2.45;;;0.93;;
49852;SDS011;35751;48.072;11.688;2022-10-16T14:43:57;1.17;;;0.90;;
49852;SDS011;35751;48.072;11.688;2022-10-16T14:46:45;1.15;;;0.90;;
49852;SDS011;35751;48.072;11.688;2022-10-16T14:51:40;0.95;;;0.93;;
49852;SDS011;35751;48.072;11.688;2022-10-16T14:54:10;2.85;;;1.13;;
49852;SDS011;35751;48.072;11.688;2022-10-16T14:59:20;0.85;;;0.82;;
49852;SDS011;35751;48.072;11.688;2022-10-16T15:01:53;3.17;;;0.90;;
49852;SDS011;35751;48.072;11.688;2022-10-16T15:04:19;1.85;;;0.90;;
49852;SDS011;35751;48.072;11.688;2022-10-16T15:06:50;2.03;;;0.90;;
49852;SDS011;35751;48.072;11.688;2022-10-16T15:09:15;1.55;;;0.95;;
49852;SDS011;35751;48.072;11.688;2022-10-16T15:11:43;1.55;;;0.80;;
49852;SDS011;35751;48.072;11.688;2022-10-16T15:14:12;1.65;;;0.98;;
49852;SDS011;35751;48.072;11.688;2022-10-16T15:16:38;1.90;;;0.90;;
49852;SDS011;35751;48.072;11.688;2022-10-16T15:19:04;4.05;;;1.13;;
49852;SDS011;35751;48.072;11.688;2022-10-16T15:21:30;1.55;;;0.98;;
49852;SDS011;35751;48.072;11.688;2022-10-16T15:23:59;1.85;;;1.27;;
49852;SDS011;35751;48.072;11.688;2022-10-16T15:26:25;1.70;;;1.25;;
49852;SDS011;35751;48.072;11.688;2022-10-16T15:28:51;1.85;;;1.23;;
49852;SDS011;35751;48.072;11.688;2022-10-16T15:31:17;1.85;;;1.40;;
49852;SDS011;35751;48.072;11.688;2022-10-16T15:33:44;0.80;;;0.65;;
49852;SDS011;35751;48.072;11.688;2022-10-16T15:36:12;1.42;;;0.95;;
49852;SDS011;35751;48.072;11.688;2022-10-16T15:38:38;2.38;;;1.08;;
49852;SDS011;35751;48.072;11.688;2022-10-16T15:41:03;1.35;;;1.20;;
49852;SDS011;35751;48.072;11.688;2022-10-16T15:43:29;3.97;;;1.50;;
49852;SDS011;35751;48.072;11.688;2022-10-16T15:45:59;1.63;;;1.10;;
49852;SDS011;35751;48.072;11.688;2022-10-16T15:48:26;1.20;;;1.10;;
49852;SDS011;35751;48.072;11.688;2022-10-16T15:50:53;1.75;;;0.80;;
49852;SDS011;35751;48.072;11.688;2022-10-16T15:53:18;2.28;;;1.08;;
49852;SDS011;35751;48.072;11.688;2022-10-16T15:55:44;1.23;;;1.10;;
49852;SDS011;35751;48.072;11.688;2022-10-16T15:58:09;1.42;;;0.93;;
49852;SDS011;35751;48.072;11.688;2022-10-16T16:00:35;1.58;;;1.10;;
49852;SDS011;35751;48.072;11.688;2022-10-16T16:03:03;1.10;;;1.00;;
49852;SDS011;35751;48.072;11.688;2022-10-16T16:05:28;2.88;;;1.10;;
49852;SDS011;35751;48.072;11.688;2022-10-16T16:07:58;1.60;;;0.95;;
49852;SDS011;35751;48.072;11.688;2022-10-16T16:10:24;1.50;;;1.00;;
49852;SDS011;35751;48.072;11.688;2022-10-16T16:12:49;2.88;;;1.25;;
49852;SDS011;35751;48.072;11.688;2022-10-16T16:15:27;3.55;;;1.23;;
49852;SDS011;35751;48.072;11.688;2022-10-16T16:17:52;1.67;;;1.05;;
49852;SDS011;35751;48.072;11.688;2022-10-16T16:20:18;3.25;;;1.52;;
49852;SDS011;35751;48.072;11.688;2022-10-16T16:22:43;3.55;;;1.25;;
49852;SDS011;35751;48.072;11.688;2022-10-16T16:25:09;3.05;;;1.85;;
49852;SDS011;35751;48.072;11.688;2022-10-16T16:27:35;5.80;;;3.13;;
49852;SDS011;35751;48.072;11.688;2022-10-16T16:30:03;4.53;;;3.25;;
49852;SDS011;35751;48.072;11.688;2022-10-16T16:32:30;3.80;;;1.98;;
49852;SDS011;35751;48.072;11.688;2022-10-16T16:34:58;3.92;;;2.08;;
49852;SDS011;35751;48.072;11.688;2022-10-16T16:37:23;2.83;;;1.67;;
49852;SDS011;35751;48.072;11.688;2022-10-16T16:39:48;5.05;;;2.47;;
49852;SDS011;35751;48.072;11.688;2022-10-16T16:42:14;3.35;;;1.90;;
49852;SDS011;35751;48.072;11.688;2022-10-16T16:44:42;3.20;;;1.90;;
49852;SDS011;35751;48.072;11.688;2022-10-16T16:47:09;3.78;;;2.00;;
49852;SDS011;35751;48.072;11.688;2022-10-16T16:49:34;4.97;;;1.90;;
49852;SDS011;35751;48.072;11.688;2022-10-16T16:52:00;3.97;;;2.10;;
49852;SDS011;35751;48.072;11.688;2022-10-16T16:54:25;4.22;;;1.80;;
49852;SDS011;35751;48.072;11.688;2022-10-16T16:56:50;3.38;;;1.90;;
49852;SDS011;35751;48.072;11.688;2022-10-16T16:59:17;3.47;;;2.05;;
49852;SDS011;35751;48.072;11.688;2022-10-16T17:01:44;4.78;;;1.98;;
49852;SDS011;35751;48.072;11.688;2022-10-16T17:04:10;3.15;;;2.13;;
49852;SDS011;35751;48.072;11.688;2022-10-16T17:06:38;5.57;;;2.90;;
49852;SDS011;35751;48.072;11.688;2022-10-16T17:09:05;5.05;;;3.05;;
49852;SDS011;35751;48.072;11.688;2022-10-16T17:11:31;5.22;;;1.67;;
49852;SDS011;35751;48.072;11.688;2022-10-16T17:13:57;6.40;;;3.33;;
49852;SDS011;35751;48.072;11.688;2022-10-16T17:16:24;4.72;;;2.92;;